Glendon, North Carolina
Current Conditions -  °F | °C
As of 6:15 AM on Sunday 23 Nov 2014 (Local Time) from K5W8 Reporting Station
Overcast Overcast  
Wind Chill: 41°   Ceiling: 3400
Heat Index: 41°   Visibility: 10mi
Dew Point: 31°   Wind: 0mph
Humidity: 68%   Direction: NA
Pressure: 30.26"   Gusts: NA
Location:  35.4616°N, 79.5721°W
Report Text: K5W8 231115Z AUTO 00000KT 10SM BKN034 SCT042 OVC050 05/00 A3026 RMK AO2 T00501005
Loading
Personal Weather Stations






























Interactive Weather Map New forecast layout! Learn more

10-Day Weather Forecast

Advertisements
Track Severe Weather on mobile